sensor_id;sensor_type;location;lat;lon;timestamp;pressure;altitude;pressure_sealevel;temperature;humidity
83037;BME280;73029;43.592;1.458;2024-01-30T00:00:43;101245.91;;;13.77;65.74
83037;BME280;73029;43.592;1.458;2024-01-30T00:03:08;101225.69;;;13.66;65.70
83037;BME280;73029;43.592;1.458;2024-01-30T00:05:33;101228.31;;;13.68;66.13
83037;BME280;73029;43.592;1.458;2024-01-30T00:07:59;101227.44;;;13.66;66.19
83037;BME280;73029;43.592;1.458;2024-01-30T00:10:25;101226.59;;;13.64;66.43
83037;BME280;73029;43.592;1.458;2024-01-30T00:12:51;101239.88;;;13.64;65.75
83037;BME280;73029;43.592;1.458;2024-01-30T00:15:17;101235.50;;;13.61;66.32
83037;BME280;73029;43.592;1.458;2024-01-30T00:17:43;101234.63;;;13.61;66.16
83037;BME280;73029;43.592;1.458;2024-01-30T00:20:09;101234.59;;;13.62;66.38
83037;BME280;73029;43.592;1.458;2024-01-30T00:22:34;101222.25;;;13.57;66.55
83037;BME280;73029;43.592;1.458;2024-01-30T00:25:00;101238.13;;;13.60;66.36
83037;BME280;73029;43.592;1.458;2024-01-30T00:27:26;101228.41;;;13.60;66.06
83037;BME280;73029;43.592;1.458;2024-01-30T00:29:55;101218.78;;;13.52;66.27
83037;BME280;73029;43.592;1.458;2024-01-30T00:32:20;101190.56;;;13.40;65.98
83037;BME280;73029;43.592;1.458;2024-01-30T00:34:45;101227.53;;;13.58;66.48
83037;BME280;73029;43.592;1.458;2024-01-30T00:37:11;101210.81;;;13.50;66.37
83037;BME280;73029;43.592;1.458;2024-01-30T00:39:36;101201.19;;;13.40;66.15
83037;BME280;73029;43.592;1.458;2024-01-30T00:42:02;101222.28;;;13.54;66.61
83037;BME280;73029;43.592;1.458;2024-01-30T00:44:27;101220.56;;;13.50;66.87
83037;BME280;73029;43.592;1.458;2024-01-30T00:46:55;101224.97;;;13.52;66.59
83037;BME280;73029;43.592;1.458;2024-01-30T00:49:21;101216.22;;;13.41;66.61
83037;BME280;73029;43.592;1.458;2024-01-30T00:51:46;101228.53;;;13.50;66.58
83037;BME280;73029;43.592;1.458;2024-01-30T00:54:12;101231.16;;;13.51;66.79
83037;BME280;73029;43.592;1.458;2024-01-30T00:56:37;101232.09;;;13.49;66.51
83037;BME280;73029;43.592;1.458;2024-01-30T00:59:02;101196.88;;;13.33;66.50
83037;BME280;73029;43.592;1.458;2024-01-30T01:01:28;101230.28;;;13.51;66.36
83037;BME280;73029;43.592;1.458;2024-01-30T01:03:57;101225.84;;;13.51;66.43
83037;BME280;73029;43.592;1.458;2024-01-30T01:06:23;101220.53;;;13.51;66.38
83037;BME280;73029;43.592;1.458;2024-01-30T01:08:48;101217.03;;;13.47;66.61
83037;BME280;73029;43.592;1.458;2024-01-30T01:11:14;101217.09;;;13.44;66.70
83037;BME280;73029;43.592;1.458;2024-01-30T01:13:39;101230.28;;;13.52;66.69
83037;BME280;73029;43.592;1.458;2024-01-30T01:16:05;101202.13;;;13.37;66.50
83037;BME280;73029;43.592;1.458;2024-01-30T01:18:30;101214.41;;;13.46;66.59
83037;BME280;73029;43.592;1.458;2024-01-30T01:20:56;101220.59;;;13.46;66.24
83037;BME280;73029;43.592;1.458;2024-01-30T01:23:21;101221.47;;;13.47;66.67
83037;BME280;73029;43.592;1.458;2024-01-30T01:25:47;101225.88;;;13.50;66.29
83037;BME280;73029;43.592;1.458;2024-01-30T01:28:12;101232.13;;;13.45;66.83
83037;BME280;73029;43.592;1.458;2024-01-30T01:30:37;101227.69;;;13.46;66.36
83037;BME280;73029;43.592;1.458;2024-01-30T01:33:03;101236.53;;;13.48;66.34
83037;BME280;73029;43.592;1.458;2024-01-30T01:35:28;101226.84;;;13.41;66.54
83037;BME280;73029;43.592;1.458;2024-01-30T01:37:54;101236.53;;;13.48;66.61
83037;BME280;73029;43.592;1.458;2024-01-30T01:40:22;101225.91;;;13.46;66.78
83037;BME280;73029;43.592;1.458;2024-01-30T01:42:47;101232.97;;;13.47;66.35
83037;BME280;73029;43.592;1.458;2024-01-30T01:45:13;101221.56;;;13.42;66.83
83037;BME280;73029;43.592;1.458;2024-01-30T01:47:39;101241.81;;;13.50;66.81
83037;BME280;73029;43.592;1.458;2024-01-30T01:50:05;101226.84;;;13.41;66.78
83037;BME280;73029;43.592;1.458;2024-01-30T01:52:31;101248.91;;;13.49;66.58
83037;BME280;73029;43.592;1.458;2024-01-30T01:54:56;101236.59;;;13.43;66.53
83037;BME280;73029;43.592;1.458;2024-01-30T01:57:22;101239.22;;;13.45;67.09
83037;BME280;73029;43.592;1.458;2024-01-30T01:59:47;101253.38;;;13.45;66.76
83037;BME280;73029;43.592;1.458;2024-01-30T02:02:14;101238.34;;;13.44;67.17
83037;BME280;73029;43.592;1.458;2024-01-30T02:04:42;101233.03;;;13.41;67.13
83037;BME280;73029;43.592;1.458;2024-01-30T02:07:09;101231.28;;;13.40;66.92
83037;BME280;73029;43.592;1.458;2024-01-30T02:09:34;101224.22;;;13.39;67.14
83037;BME280;73029;43.592;1.458;2024-01-30T02:12:00;101228.66;;;13.39;66.63
83037;BME280;73029;43.592;1.458;2024-01-30T02:14:25;101235.69;;;13.41;66.87
83037;BME280;73029;43.592;1.458;2024-01-30T02:16:51;101223.34;;;13.39;67.01
83037;BME280;73029;43.592;1.458;2024-01-30T02:19:16;101232.16;;;13.41;67.11
83037;BME280;73029;43.592;1.458;2024-01-30T02:21:42;101213.69;;;13.33;66.99
83037;BME280;73029;43.592;1.458;2024-01-30T02:24:07;101222.50;;;13.37;67.32
83037;BME280;73029;43.592;1.458;2024-01-30T02:26:32;101224.28;;;13.36;67.39
83037;BME280;73029;43.592;1.458;2024-01-30T02:28:58;101230.44;;;13.38;67.56
83037;BME280;73029;43.592;1.458;2024-01-30T02:31:25;101215.44;;;13.33;67.33
83037;BME280;73029;43.592;1.458;2024-01-30T02:33:50;101222.53;;;13.34;67.41
83037;BME280;73029;43.592;1.458;2024-01-30T02:36:16;101226.94;;;13.35;67.53
83037;BME280;73029;43.592;1.458;2024-01-30T02:38:41;101226.94;;;13.35;67.55
83037;BME280;73029;43.592;1.458;2024-01-30T02:41:06;101222.56;;;13.31;67.44
83037;BME280;73029;43.592;1.458;2024-01-30T02:43:32;101222.53;;;13.32;67.46
83037;BME280;73029;43.592;1.458;2024-01-30T02:45:57;101239.31;;;13.34;67.50
83037;BME280;73029;43.592;1.458;2024-01-30T02:48:24;101237.56;;;13.33;67.58
83037;BME280;73029;43.592;1.458;2024-01-30T02:50:50;101247.28;;;13.37;67.98
83037;BME280;73029;43.592;1.458;2024-01-30T02:53:15;101237.56;;;13.35;67.87
83037;BME280;73029;43.592;1.458;2024-01-30T02:55:41;101226.13;;;13.28;67.88
83037;BME280;73029;43.592;1.458;2024-01-30T02:58:06;101221.72;;;13.26;68.19
83037;BME280;73029;43.592;1.458;2024-01-30T03:00:32;101234.91;;;13.33;67.83
83037;BME280;73029;43.592;1.458;2024-01-30T03:02:57;101217.28;;;13.28;68.15
83037;BME280;73029;43.592;1.458;2024-01-30T03:05:22;101226.94;;;13.33;68.16
83037;BME280;73029;43.592;1.458;2024-01-30T03:07:48;101213.78;;;13.26;68.07
83037;BME280;73029;43.592;1.458;2024-01-30T03:10:13;101238.47;;;13.35;68.08
83037;BME280;73029;43.592;1.458;2024-01-30T03:12:38;101229.59;;;13.33;68.50
83037;BME280;73029;43.592;1.458;2024-01-30T03:15:04;101226.09;;;13.31;68.45
83037;BME280;73029;43.592;1.458;2024-01-30T03:17:29;101223.47;;;13.30;68.44
83037;BME280;73029;43.592;1.458;2024-01-30T03:19:58;101233.16;;;13.35;67.78
83037;BME280;73029;43.592;1.458;2024-01-30T03:22:23;101228.78;;;13.28;68.05
83037;BME280;73029;43.592;1.458;2024-01-30T03:24:49;101233.19;;;13.31;68.32
83037;BME280;73029;43.592;1.458;2024-01-30T03:27:14;101231.44;;;13.30;68.06
83037;BME280;73029;43.592;1.458;2024-01-30T03:29:39;101239.38;;;13.31;68.35
83037;BME280;73029;43.592;1.458;2024-01-30T03:32:05;101242.94;;;13.29;68.27
83037;BME280;73029;43.592;1.458;2024-01-30T03:34:30;101241.16;;;13.31;68.24
83037;BME280;73029;43.592;1.458;2024-01-30T03:36:56;101242.00;;;13.33;68.60
83037;BME280;73029;43.592;1.458;2024-01-30T03:39:21;101238.53;;;13.29;68.38
83037;BME280;73029;43.592;1.458;2024-01-30T03:41:46;101238.53;;;13.29;68.08
83037;BME280;73029;43.592;1.458;2024-01-30T03:44:12;101239.41;;;13.27;68.15
83037;BME280;73029;43.592;1.458;2024-01-30T03:46:37;101244.69;;;13.31;68.56
83037;BME280;73029;43.592;1.458;2024-01-30T03:49:03;101249.13;;;13.28;68.25
83037;BME280;73029;43.592;1.458;2024-01-30T03:51:28;101254.47;;;13.26;68.39
83037;BME280;73029;43.592;1.458;2024-01-30T03:53:53;101264.19;;;13.30;68.56
83037;BME280;73029;43.592;1.458;2024-01-30T03:56:19;101258.03;;;13.25;68.53
83037;BME280;73029;43.592;1.458;2024-01-30T03:58:44;101259.78;;;13.26;68.57
83037;BME280;73029;43.592;1.458;2024-01-30T04:01:16;101251.88;;;13.23;68.22
83037;BME280;73029;43.592;1.458;2024-01-30T04:03:41;101270.41;;;13.29;68.42
83037;BME280;73029;43.592;1.458;2024-01-30T04:06:08;101253.63;;;13.24;68.41
83037;BME280;73029;43.592;1.458;2024-01-30T04:08:34;101255.34;;;13.27;68.22
83037;BME280;73029;43.592;1.458;2024-01-30T04:11:05;101265.94;;;13.28;68.75
83037;BME280;73029;43.592;1.458;2024-01-30T04:13:34;101259.84;;;13.23;68.55
83037;BME280;73029;43.592;1.458;2024-01-30T04:16:01;101270.41;;;13.26;68.58
83037;BME280;73029;43.592;1.458;2024-01-30T04:18:28;101273.06;;;13.26;68.33
83037;BME280;73029;43.592;1.458;2024-01-30T04:20:53;101259.81;;;13.20;68.41
83037;BME280;73029;43.592;1.458;2024-01-30T04:23:19;101262.47;;;13.22;68.72
83037;BME280;73029;43.592;1.458;2024-01-30T04:25:44;101262.47;;;13.20;68.60
83037;BME280;73029;43.592;1.458;2024-01-30T04:28:10;101264.28;;;13.16;68.71
83037;BME280;73029;43.592;1.458;2024-01-30T04:30:38;101269.56;;;13.19;68.98
83037;BME280;73029;43.592;1.458;2024-01-30T04:33:04;101263.44;;;13.13;68.43
83037;BME280;73029;43.592;1.458;2024-01-30T04:35:29;101275.78;;;13.17;68.60
83037;BME280;73029;43.592;1.458;2024-01-30T04:37:55;101286.38;;;13.20;68.60
83037;BME280;73029;43.592;1.458;2024-01-30T04:40:21;101286.41;;;13.17;68.32
83037;BME280;73029;43.592;1.458;2024-01-30T04:42:46;101291.72;;;13.18;68.74
83037;BME280;73029;43.592;1.458;2024-01-30T04:45:12;101287.28;;;13.16;68.92
83037;BME280;73029;43.592;1.458;2024-01-30T04:47:39;101293.47;;;13.19;68.52
83037;BME280;73029;43.592;1.458;2024-01-30T04:50:08;101301.41;;;13.23;68.63
83037;BME280;73029;43.592;1.458;2024-01-30T04:52:34;101299.66;;;13.23;68.76
83037;BME280;73029;43.592;1.458;2024-01-30T04:55:00;101290.88;;;13.12;68.50
83037;BME280;73029;43.592;1.458;2024-01-30T04:57:25;101298.78;;;13.18;68.36
83037;BME280;73029;43.592;1.458;2024-01-30T04:59:50;101297.94;;;13.13;68.37
83037;BME280;73029;43.592;1.458;2024-01-30T05:02:16;101304.09;;;13.18;68.60
83037;BME280;73029;43.592;1.458;2024-01-30T05:04:41;101308.50;;;13.19;68.76
83037;BME280;73029;43.592;1.458;2024-01-30T05:07:07;101311.19;;;13.17;68.48
83037;BME280;73029;43.592;1.458;2024-01-30T05:09:32;101306.75;;;13.18;68.53
83037;BME280;73029;43.592;1.458;2024-01-30T05:11:57;101305.03;;;13.12;68.16
83037;BME280;73029;43.592;1.458;2024-01-30T05:14:23;101302.34;;;13.17;68.29
83037;BME280;73029;43.592;1.458;2024-01-30T05:16:49;101315.59;;;13.22;68.21
83037;BME280;73029;43.592;1.458;2024-01-30T05:19:14;101319.16;;;13.17;68.22
83037;BME280;73029;43.592;1.458;2024-01-30T05:21:41;101326.22;;;13.23;68.46
83037;BME280;73029;43.592;1.458;2024-01-30T05:24:06;101339.50;;;13.22;68.33
83037;BME280;73029;43.592;1.458;2024-01-30T05:26:32;101335.06;;;13.19;68.27
83037;BME280;73029;43.592;1.458;2024-01-30T05:28:57;101340.41;;;13.17;68.33
83037;BME280;73029;43.592;1.458;2024-01-30T05:31:23;101340.41;;;13.14;68.27
83037;BME280;73029;43.592;1.458;2024-01-30T05:33:48;101351.88;;;13.21;68.31
83037;BME280;73029;43.592;1.458;2024-01-30T05:36:14;101341.28;;;13.18;68.56
83037;BME280;73029;43.592;1.458;2024-01-30T05:38:42;101335.97;;;13.15;68.33
83037;BME280;73029;43.592;1.458;2024-01-30T05:41:09;101337.72;;;13.19;68.39
83037;BME280;73029;43.592;1.458;2024-01-30T05:43:34;101327.09;;;13.16;67.94
83037;BME280;73029;43.592;1.458;2024-01-30T05:46:00;101326.25;;;13.17;68.38
83037;BME280;73029;43.592;1.458;2024-01-30T05:48:25;101332.41;;;13.16;68.13
83037;BME280;73029;43.592;1.458;2024-01-30T05:50:51;101319.16;;;13.14;68.59
83037;BME280;73029;43.592;1.458;2024-01-30T05:53:16;101335.09;;;13.17;68.46
83037;BME280;73029;43.592;1.458;2024-01-30T05:55:42;101324.50;;;13.10;68.31
83037;BME280;73029;43.592;1.458;2024-01-30T05:58:07;101328.06;;;13.12;68.54
83037;BME280;73029;43.592;1.458;2024-01-30T06:00:32;101322.72;;;13.10;68.62
83037;BME280;73029;43.592;1.458;2024-01-30T06:02:58;101328.06;;;13.12;68.81
83037;BME280;73029;43.592;1.458;2024-01-30T06:05:23;101324.53;;;13.08;68.86
83037;BME280;73029;43.592;1.458;2024-01-30T06:07:49;101317.50;;;13.03;68.63
83037;BME280;73029;43.592;1.458;2024-01-30T06:10:14;101333.41;;;13.07;68.96
83037;BME280;73029;43.592;1.458;2024-01-30T06:12:39;101329.00;;;13.05;69.43
83037;BME280;73029;43.592;1.458;2024-01-30T06:15:05;101329.00;;;13.05;69.20
83037;BME280;73029;43.592;1.458;2024-01-30T06:17:31;101341.38;;;13.07;69.22
83037;BME280;73029;43.592;1.458;2024-01-30T06:19:57;101345.81;;;13.05;69.41
83037;BME280;73029;43.592;1.458;2024-01-30T06:22:22;101343.19;;;13.01;69.83
83037;BME280;73029;43.592;1.458;2024-01-30T06:24:48;101354.69;;;13.04;69.35
83037;BME280;73029;43.592;1.458;2024-01-30T06:27:14;101346.75;;;13.00;69.82
83037;BME280;73029;43.592;1.458;2024-01-30T06:29:40;101353.78;;;13.02;69.61
83037;BME280;73029;43.592;1.458;2024-01-30T06:32:06;101352.00;;;13.03;69.50
83037;BME280;73029;43.592;1.458;2024-01-30T06:34:31;101352.00;;;13.03;69.52
83037;BME280;73029;43.592;1.458;2024-01-30T06:36:57;101349.41;;;12.97;69.51
83037;BME280;73029;43.592;1.458;2024-01-30T06:39:22;101353.81;;;12.99;69.68
83037;BME280;73029;43.592;1.458;2024-01-30T06:41:48;101363.53;;;13.02;70.03
83037;BME280;73029;43.592;1.458;2024-01-30T06:44:13;101338.94;;;12.80;69.91
83037;BME280;73029;43.592;1.458;2024-01-30T06:46:39;101383.00;;;12.98;69.99
83037;BME280;73029;43.592;1.458;2024-01-30T06:49:04;101387.44;;;12.99;70.07
83037;BME280;73029;43.592;1.458;2024-01-30T06:51:30;101394.50;;;13.01;70.07
83037;BME280;73029;43.592;1.458;2024-01-30T06:53:56;101388.34;;;12.99;69.99
83037;BME280;73029;43.592;1.458;2024-01-30T06:56:21;101385.72;;;12.94;70.46
83037;BME280;73029;43.592;1.458;2024-01-30T06:58:50;101385.66;;;12.98;70.08
83037;BME280;73029;43.592;1.458;2024-01-30T07:01:16;101387.47;;;12.96;70.34
83037;BME280;73029;43.592;1.458;2024-01-30T07:03:42;101385.66;;;13.01;70.14
83037;BME280;73029;43.592;1.458;2024-01-30T07:06:08;101379.47;;;13.00;70.47
83037;BME280;73029;43.592;1.458;2024-01-30T07:08:34;101382.09;;;13.05;69.98
83037;BME280;73029;43.592;1.458;2024-01-30T07:10:59;101383.88;;;13.04;70.08
83037;BME280;73029;43.592;1.458;2024-01-30T07:13:25;101394.44;;;13.07;70.65
83037;BME280;73029;43.592;1.458;2024-01-30T07:15:50;101390.91;;;13.08;70.49
83037;BME280;73029;43.592;1.458;2024-01-30T07:18:16;101355.69;;;12.86;70.35
83037;BME280;73029;43.592;1.458;2024-01-30T07:20:41;101394.44;;;13.12;70.13
83037;BME280;73029;43.592;1.458;2024-01-30T07:23:11;101386.50;;;13.07;70.21
83037;BME280;73029;43.592;1.458;2024-01-30T07:25:42;101390.00;;;13.11;70.54
83037;BME280;73029;43.592;1.458;2024-01-30T07:28:08;101397.94;;;13.14;70.36
83037;BME280;73029;43.592;1.458;2024-01-30T07:30:37;101399.75;;;13.12;70.38
83037;BME280;73029;43.592;1.458;2024-01-30T07:33:04;101412.97;;;13.15;70.32
83037;BME280;73029;43.592;1.458;2024-01-30T07:35:29;101402.38;;;13.12;70.26
83037;BME280;73029;43.592;1.458;2024-01-30T07:37:55;101395.31;;;13.12;70.79
83037;BME280;73029;43.592;1.458;2024-01-30T07:40:21;101408.56;;;13.17;69.97
83037;BME280;73029;43.592;1.458;2024-01-30T07:42:48;101417.38;;;13.16;70.63
83037;BME280;73029;43.592;1.458;2024-01-30T07:45:13;101408.53;;;13.15;70.63
83037;BME280;73029;43.592;1.458;2024-01-30T07:47:38;101411.19;;;13.15;70.78
83037;BME280;73029;43.592;1.458;2024-01-30T07:50:04;101418.28;;;13.21;70.50
83037;BME280;73029;43.592;1.458;2024-01-30T07:52:30;101422.72;;;13.17;70.45
83037;BME280;73029;43.592;1.458;2024-01-30T07:54:55;101435.06;;;13.22;70.79
83037;BME280;73029;43.592;1.458;2024-01-30T07:57:21;101433.31;;;13.20;70.53
83037;BME280;73029;43.592;1.458;2024-01-30T07:59:46;101446.56;;;13.25;70.60
83037;BME280;73029;43.592;1.458;2024-01-30T08:02:12;101436.84;;;13.18;70.38
83037;BME280;73029;43.592;1.458;2024-01-30T08:04:46;101446.53;;;13.28;70.69
83037;BME280;73029;43.592;1.458;2024-01-30T08:07:14;101454.50;;;13.31;70.71
83037;BME280;73029;43.592;1.458;2024-01-30T08:09:39;101436.81;;;13.27;70.23
83037;BME280;73029;43.592;1.458;2024-01-30T08:12:05;101442.06;;;13.33;70.59
83037;BME280;73029;43.592;1.458;2024-01-30T08:14:30;101436.75;;;13.36;70.64
83037;BME280;73029;43.592;1.458;2024-01-30T08:16:56;101442.06;;;13.36;70.66
83037;BME280;73029;43.592;1.458;2024-01-30T08:19:21;101433.19;;;13.37;70.92
83037;BME280;73029;43.592;1.458;2024-01-30T08:21:46;101438.47;;;13.40;70.70
83037;BME280;73029;43.592;1.458;2024-01-30T08:24:12;101427.84;;;13.40;70.74
83037;BME280;73029;43.592;1.458;2024-01-30T08:26:37;101405.81;;;13.31;70.77
83037;BME280;73029;43.592;1.458;2024-01-30T08:29:04;101436.66;;;13.49;70.23
83037;BME280;73029;43.592;1.458;2024-01-30T08:31:29;101435.69;;;13.53;70.48
83037;BME280;73029;43.592;1.458;2024-01-30T08:33:54;101439.25;;;13.53;70.23
83037;BME280;73029;43.592;1.458;2024-01-30T08:36:20;101443.63;;;13.57;70.44
83037;BME280;73029;43.592;1.458;2024-01-30T08:38:45;101443.63;;;13.60;70.43
83037;BME280;73029;43.592;1.458;2024-01-30T08:41:11;101433.88;;;13.59;70.74
83037;BME280;73029;43.592;1.458;2024-01-30T08:43:36;101433.88;;;13.61;70.11
83037;BME280;73029;43.592;1.458;2024-01-30T08:46:02;101449.69;;;13.71;70.22
83037;BME280;73029;43.592;1.458;2024-01-30T08:48:28;101438.25;;;13.65;70.06
83037;BME280;73029;43.592;1.458;2024-01-30T08:50:53;101445.31;;;13.69;69.87
83037;BME280;73029;43.592;1.458;2024-01-30T08:53:19;101450.59;;;13.72;69.85
83037;BME280;73029;43.592;1.458;2024-01-30T08:55:44;101435.59;;;13.68;70.24
83037;BME280;73029;43.592;1.458;2024-01-30T08:58:10;101454.06;;;13.80;69.95
83037;BME280;73029;43.592;1.458;2024-01-30T09:00:36;101450.50;;;13.81;70.18
83037;BME280;73029;43.592;1.458;2024-01-30T09:03:01;101448.69;;;13.86;69.72
83037;BME280;73029;43.592;1.458;2024-01-30T09:05:27;101462.78;;;13.94;69.58
83037;BME280;73029;43.592;1.458;2024-01-30T09:07:52;101456.50;;;14.00;69.65
83037;BME280;73029;43.592;1.458;2024-01-30T09:10:18;101460.94;;;14.01;69.18
83037;BME280;73029;43.592;1.458;2024-01-30T09:12:44;101459.16;;;14.01;69.49
83037;BME280;73029;43.592;1.458;2024-01-30T09:15:09;101453.84;;;14.01;69.05
83037;BME280;73029;43.592;1.458;2024-01-30T09:17:35;101479.47;;;14.07;69.18
83037;BME280;73029;43.592;1.458;2024-01-30T09:20:00;101480.34;;;14.08;68.64
83037;BME280;73029;43.592;1.458;2024-01-30T09:22:25;101483.00;;;14.11;68.65
83037;BME280;73029;43.592;1.458;2024-01-30T09:24:51;101471.50;;;14.07;68.07
83037;BME280;73029;43.592;1.458;2024-01-30T09:27:16;101476.78;;;14.12;68.69
83037;BME280;73029;43.592;1.458;2024-01-30T09:29:42;101489.06;;;14.23;67.83
83037;BME280;73029;43.592;1.458;2024-01-30T09:32:07;101489.91;;;14.25;68.25
83037;BME280;73029;43.592;1.458;2024-01-30T09:34:34;101494.25;;;14.34;67.69
83037;BME280;73029;43.592;1.458;2024-01-30T09:36:59;101495.09;;;14.38;68.07
83037;BME280;73029;43.592;1.458;2024-01-30T09:39:25;101480.94;;;14.36;67.30
83037;BME280;73029;43.592;1.458;2024-01-30T09:42:12;101505.59;;;14.51;66.81
83037;BME280;73029;43.592;1.458;2024-01-30T09:44:43;101499.28;;;14.62;66.47
83037;BME280;73029;43.592;1.458;2024-01-30T09:47:09;101490.38;;;14.64;65.73
83037;BME280;73029;43.592;1.458;2024-01-30T09:49:35;101493.84;;;14.71;65.33
83037;BME280;73029;43.592;1.458;2024-01-30T09:52:02;101487.53;;;14.79;65.50
83037;BME280;73029;43.592;1.458;2024-01-30T09:54:32;101487.41;;;14.87;65.24
83037;BME280;73029;43.592;1.458;2024-01-30T09:56:58;101497.06;;;14.94;64.64
83037;BME280;73029;43.592;1.458;2024-01-30T09:59:24;101488.25;;;14.92;63.86
83037;BME280;73029;43.592;1.458;2024-01-30T10:01:50;101497.03;;;14.96;63.26
83037;BME280;73029;43.592;1.458;2024-01-30T10:04:16;101488.97;;;15.02;63.68
83037;BME280;73029;43.592;1.458;2024-01-30T10:06:42;101489.81;;;15.05;63.69
83037;BME280;73029;43.592;1.458;2024-01-30T10:09:07;101495.06;;;15.12;62.93
83037;BME280;73029;43.592;1.458;2024-01-30T10:11:33;101492.28;;;15.19;62.59
83037;BME280;73029;43.592;1.458;2024-01-30T10:14:00;101511.78;;;15.23;62.18
83037;BME280;73029;43.592;1.458;2024-01-30T10:16:25;101492.28;;;15.19;61.90
83037;BME280;73029;43.592;1.458;2024-01-30T10:18:51;101493.06;;;15.26;61.62
83037;BME280;73029;43.592;1.458;2024-01-30T10:21:16;101489.47;;;15.30;62.11
83037;BME280;73029;43.592;1.458;2024-01-30T10:23:43;101498.19;;;15.38;61.69
83037;BME280;73029;43.592;1.458;2024-01-30T10:26:09;101491.03;;;15.43;61.74
83037;BME280;73029;43.592;1.458;2024-01-30T10:28:35;101483.00;;;15.45;61.47
83037;BME280;73029;43.592;1.458;2024-01-30T10:31:01;101477.63;;;15.46;61.92
83037;BME280;73029;43.592;1.458;2024-01-30T10:33:31;101481.91;;;15.56;61.48
83037;BME280;73029;43.592;1.458;2024-01-30T10:36:04;101484.47;;;15.66;61.77
83037;BME280;73029;43.592;1.458;2024-01-30T10:38:31;101486.97;;;15.75;60.91
83037;BME280;73029;43.592;1.458;2024-01-30T10:40:58;101488.59;;;15.85;60.77
83037;BME280;73029;43.592;1.458;2024-01-30T10:43:35;101484.06;;;15.88;60.06
83037;BME280;73029;43.592;1.458;2024-01-30T10:46:10;101484.94;;;15.89;60.37
83037;BME280;73029;43.592;1.458;2024-01-30T10:48:42;101468.00;;;15.92;60.14
83037;BME280;73029;43.592;1.458;2024-01-30T10:51:09;101470.50;;;16.01;60.27
83037;BME280;73029;43.592;1.458;2024-01-30T10:53:35;101466.88;;;16.05;59.72
83037;BME280;73029;43.592;1.458;2024-01-30T10:56:03;101473.88;;;16.10;59.48
83037;BME280;73029;43.592;1.458;2024-01-30T10:58:29;101467.56;;;16.16;59.03
83037;BME280;73029;43.592;1.458;2024-01-30T11:00:55;101470.03;;;16.25;59.49
83037;BME280;73029;43.592;1.458;2024-01-30T11:03:22;101469.16;;;16.25;58.76
83037;BME280;73029;43.592;1.458;2024-01-30T11:05:52;101470.00;;;16.27;59.20
83037;BME280;73029;43.592;1.458;2024-01-30T11:08:24;101444.47;;;16.13;58.58
83037;BME280;73029;43.592;1.458;2024-01-30T11:10:55;101467.13;;;16.37;59.00
83037;BME280;73029;43.592;1.458;2024-01-30T11:13:21;101476.75;;;16.46;58.14
83037;BME280;73029;43.592;1.458;2024-01-30T11:15:47;101458.91;;;16.48;57.65
83037;BME280;73029;43.592;1.458;2024-01-30T11:18:25;101475.69;;;16.53;57.55
83037;BME280;73029;43.592;1.458;2024-01-30T11:20:51;101459.56;;;16.58;57.17
83037;BME280;73029;43.592;1.458;2024-01-30T11:23:17;101473.78;;;16.60;57.44
83037;BME280;73029;43.592;1.458;2024-01-30T11:25:44;101437.38;;;16.56;57.37
83037;BME280;73029;43.592;1.458;2024-01-30T11:28:15;101453.09;;;16.69;57.40
83037;BME280;73029;43.592;1.458;2024-01-30T11:30:41;101463.53;;;16.82;57.37
83037;BME280;73029;43.592;1.458;2024-01-30T11:33:11;101446.44;;;16.90;56.92
83037;BME280;73029;43.592;1.458;2024-01-30T11:38:03;101432.06;;;16.96;56.05
83037;BME280;73029;43.592;1.458;2024-01-30T11:40:30;101443.34;;;17.07;56.24
83037;BME280;73029;43.592;1.458;2024-01-30T11:42:56;101427.28;;;17.10;55.86
83037;BME280;73029;43.592;1.458;2024-01-30T11:45:23;101443.00;;;17.22;55.60
83037;BME280;73029;43.592;1.458;2024-01-30T11:47:48;101448.13;;;17.32;55.65
83037;BME280;73029;43.592;1.458;2024-01-30T11:50:14;101440.81;;;17.40;55.06
83037;BME280;73029;43.592;1.458;2024-01-30T11:52:40;101427.34;;;17.43;55.06
83037;BME280;73029;43.592;1.458;2024-01-30T11:55:07;101436.91;;;17.53;54.20
83037;BME280;73029;43.592;1.458;2024-01-30T11:57:33;101424.28;;;17.58;54.61
83037;BME280;73029;43.592;1.458;2024-01-30T12:00:00;101415.34;;;17.59;54.25
83037;BME280;73029;43.592;1.458;2024-01-30T12:02:26;101410.72;;;17.66;54.30
83037;BME280;73029;43.592;1.458;2024-01-30T12:04:52;101400.91;;;17.66;53.68
83037;BME280;73029;43.592;1.458;2024-01-30T12:07:17;101403.28;;;17.79;53.77
83037;BME280;73029;43.592;1.458;2024-01-30T12:09:52;101395.91;;;17.87;54.00
83037;BME280;73029;43.592;1.458;2024-01-30T12:12:17;101405.34;;;18.00;53.47
83037;BME280;73029;43.592;1.458;2024-01-30T12:14:43;101396.22;;;18.07;53.72
83037;BME280;73029;43.592;1.458;2024-01-30T12:17:08;101384.38;;;18.16;53.83
83037;BME280;73029;43.592;1.458;2024-01-30T12:19:34;101397.09;;;18.39;53.61
83037;BME280;73029;43.592;1.458;2024-01-30T12:22:00;101406.41;;;18.55;52.12
83037;BME280;73029;43.592;1.458;2024-01-30T12:24:27;101393.72;;;18.62;51.79
83037;BME280;73029;43.592;1.458;2024-01-30T12:26:56;101398.91;;;18.68;51.60
83037;BME280;73029;43.592;1.458;2024-01-30T12:29:22;101402.19;;;18.77;51.54
83037;BME280;73029;43.592;1.458;2024-01-30T12:31:47;101391.19;;;18.87;51.53
83037;BME280;73029;43.592;1.458;2024-01-30T12:34:16;101391.72;;;18.98;50.39
83037;BME280;73029;43.592;1.458;2024-01-30T12:36:43;101396.78;;;19.07;49.94
83037;BME280;73029;43.592;1.458;2024-01-30T12:39:11;101385.88;;;19.13;49.33
83037;BME280;73029;43.592;1.458;2024-01-30T12:41:38;101381.13;;;19.21;49.26
83037;BME280;73029;43.592;1.458;2024-01-30T12:44:04;101383.38;;;19.33;48.60
83037;BME280;73029;43.592;1.458;2024-01-30T12:46:29;101389.63;;;19.34;48.28